Thalia — FPCS — position and weather

sailwx.info

Track history (hours):
 
Tides and Currents Weather Stations Pressure Air Temp Water Temp Dewpoint Dewpoint Depression Visibility Wind Speed Wind Dir Waves Ship Positions

Oceanographic research ship Thalia (France)

Detailed information on ship capabilities available from University of Delaware's Ocean Information Center.

Last reported at 2018-Apr-25 02:29 UTC. Time now 2018-Apr-25 02:44 UTC.
Position N 48°23' W 004°29'.

Length 25 m; beam 7 m.

Type: Fishing. MMSI: 227270000.

Date/timePositionNaut miles runAvg speedWind from/ knotsBaromVisibWave heightAir tempDewpointWater temp
2018-Apr-25 02:29N 48°23' W 004°29'0 0.0
2018-Apr-25 01:59N 48°23' W 004°29'0 0.0
2018-Apr-25 01:29N 48°23' W 004°29'0 0.0
2018-Apr-25 00:59N 48°23' W 004°29'0 0.0
2018-Apr-25 00:29N 48°23' W 004°29'0 0.0
2018-Apr-24 23:59N 48°23' W 004°29'0 0.0
2018-Apr-24 23:29N 48°23' W 004°29'0 0.0
2018-Apr-24 22:59N 48°23' W 004°29'0 0.0
2018-Apr-24 22:29N 48°23' W 004°29'0 0.0
2018-Apr-24 21:59N 48°23' W 004°29'0 0.0
2018-Apr-24 21:29N 48°23' W 004°29'0 0.0
2018-Apr-24 20:59N 48°23' W 004°29'0 0.0
2018-Apr-24 20:29N 48°23' W 004°29'0 0.0
2018-Apr-24 19:59N 48°23' W 004°29'0 0.0
2018-Apr-24 19:29N 48°23' W 004°29'0 0.0
2018-Apr-24 18:59N 48°23' W 004°29'0 0.0
2018-Apr-24 18:29N 48°23' W 004°29'0 0.0
2018-Apr-24 17:59N 48°23' W 004°29'0 0.0
2018-Apr-24 17:29N 48°23' W 004°29'0 0.0
2018-Apr-24 16:59N 48°23' W 004°29'0 0.0
2018-Apr-24 16:29N 48°23' W 004°29'0 0.0
2018-Apr-24 15:59N 48°23' W 004°29'0 0.0
2018-Apr-24 15:29N 48°23' W 004°29'0 0.0
2018-Apr-24 14:59N 48°23' W 004°29'1 1.2
2018-Apr-24 14:30N 48°22' W 004°29'4 8.0
2018-Apr-24 14:00N 48°19' W 004°27'3 6.0
2018-Apr-24 13:30N 48°19' W 004°22'0 1.0
2018-Apr-24 13:01N 48°19' W 004°22'1 1.7
2018-Apr-24 12:30N 48°18' W 004°21'1 2.2
2018-Apr-24 12:00N 48°19' W 004°19'0 0.4
2018-Apr-24 11:31N 48°19' W 004°19'1 2.7
2018-Apr-24 11:01N 48°18' W 004°21'2 3.1
2018-Apr-24 10:30N 48°18' W 004°23'2 4.2
2018-Apr-24 10:00N 48°18' W 004°26'0 0.6
2018-Apr-24 09:30N 48°18' W 004°26'0 0.3
2018-Apr-24 09:00N 48°18' W 004°26'2 3.2
2018-Apr-24 08:30N 48°20' W 004°26'0 0.8
2018-Apr-24 08:00N 48°19' W 004°25'1 1.5
2018-Apr-24 07:30N 48°19' W 004°26'0 0.2
2018-Apr-24 07:00N 48°19' W 004°26'3 5.2
2018-Apr-24 06:30N 48°21' W 004°29'2 4.0
2018-Apr-24 06:00N 48°23' W 004°29'0 0.0
2018-Apr-24 05:30N 48°23' W 004°29'0 0.0
2018-Apr-24 05:00N 48°23' W 004°29'0 0.0
2018-Apr-24 04:30N 48°23' W 004°29'0 0.0
2018-Apr-24 04:00N 48°23' W 004°29'0 0.0
2018-Apr-24 03:30N 48°23' W 004°29'0 0.0
2018-Apr-24 03:00N 48°23' W 004°29'0 0.0
2018-Apr-24 02:30N 48°23' W 004°29'0 0.0
2018-Apr-24 02:00N 48°23' W 004°29'0 0.0
2018-Apr-24 01:30N 48°23' W 004°29'0 0.0
2018-Apr-24 01:00N 48°23' W 004°29'0 0.0
2018-Apr-24 00:30N 48°23' W 004°29'0 0.0
2018-Apr-24 00:00N 48°23' W 004°29'0 0.0
2018-Apr-23 23:30N 48°23' W 004°29'0 0.0
2018-Apr-23 23:00N 48°23' W 004°29'0 0.0
2018-Apr-23 22:30N 48°23' W 004°29'0 0.0
2018-Apr-23 22:00N 48°23' W 004°29'0 0.0
2018-Apr-23 21:30N 48°23' W 004°29'0 0.0
2018-Apr-23 21:00N 48°23' W 004°29'0 0.0
2018-Apr-23 20:30N 48°23' W 004°29'0 0.0
2018-Apr-23 20:00N 48°23' W 004°29'0 0.0
2018-Apr-23 19:30N 48°23' W 004°29'0 0.0
2018-Apr-23 19:00N 48°23' W 004°29'0 0.0
2018-Apr-23 18:30N 48°23' W 004°29'0 0.0
2018-Apr-23 18:00N 48°23' W 004°29'0 0.0
2018-Apr-23 17:30N 48°23' W 004°29'0 0.0
2018-Apr-23 17:00N 48°23' W 004°29'0 0.0
2018-Apr-23 16:30N 48°23' W 004°29'0 0.0
2018-Apr-23 15:53N 48°23' W 004°29'0 0.0
2018-Apr-23 15:30N 48°23' W 004°29'0 0.0
2018-Apr-23 15:00N 48°23' W 004°29'1 1.8
2018-Apr-23 14:30N 48°22' W 004°29'2 3.3
2018-Apr-23 14:00N 48°23' W 004°27'1 2.2
2018-Apr-23 13:30N 48°23' W 004°25'1 1.8
2018-Apr-23 13:00N 48°23' W 004°27'0 0.9
2018-Apr-23 12:30N 48°22' W 004°27'1 2.5
2018-Apr-23 12:00N 48°23' W 004°25'0 0.8
2018-Apr-23 11:30N 48°23' W 004°26'1 1.4
2018-Apr-23 11:00N 48°23' W 004°25'0 0.8
2018-Apr-23 10:30N 48°23' W 004°26'0 0.9
2018-Apr-23 10:00N 48°23' W 004°25'0 0.6
2018-Apr-23 09:30N 48°23' W 004°25'0 0.8
2018-Apr-23 09:00N 48°23' W 004°25'0 0.9
2018-Apr-23 08:30N 48°23' W 004°24'0 0.4
2018-Apr-23 08:00N 48°23' W 004°24'0 0.8
2018-Apr-23 07:30N 48°24' W 004°23'1 1.9
2018-Apr-23 07:00N 48°23' W 004°25'3 5.2
2018-Apr-23 06:29N 48°23' W 004°29'0 0.0
2018-Apr-23 05:59N 48°23' W 004°29'0 0.0
2018-Apr-23 05:29N 48°23' W 004°29'0 0.0
2018-Apr-23 04:59N 48°23' W 004°29'0 0.0
2018-Apr-23 04:29N 48°23' W 004°29'0 0.0
2018-Apr-23 03:59N 48°23' W 004°29'0 0.0
2018-Apr-23 03:29N 48°23' W 004°29'0 0.0
2018-Apr-23 02:59N 48°23' W 004°29'0 0.0
2018-Apr-23 02:29N 48°23' W 004°29'0 0.0
2018-Apr-23 01:59N 48°23' W 004°29'0 0.0
2018-Apr-23 01:29N 48°23' W 004°29'0 0.0
2018-Apr-23 00:59N 48°23' W 004°29'0 0.0
2018-Apr-23 00:29N 48°23' W 004°29'0 0.0
2018-Apr-22 23:59N 48°23' W 004°29'0 0.0
2018-Apr-22 23:29N 48°23' W 004°29'0 0.0
2018-Apr-22 22:59N 48°23' W 004°29'0 0.0
2018-Apr-22 22:29N 48°23' W 004°29'0 0.0
2018-Apr-22 21:59N 48°23' W 004°29'0 0.0
2018-Apr-22 21:29N 48°23' W 004°29'0 0.0
2018-Apr-22 20:59N 48°23' W 004°29'0 0.0
2018-Apr-22 20:29N 48°23' W 004°29'0 0.0
2018-Apr-22 19:59N 48°23' W 004°29'0 0.0
2018-Apr-22 19:29N 48°23' W 004°29'0 0.0
2018-Apr-22 18:59N 48°23' W 004°29'0 0.0
2018-Apr-22 18:29N 48°23' W 004°29'0 0.0
2018-Apr-22 17:59N 48°23' W 004°29'0 0.0
2018-Apr-22 17:29N 48°23' W 004°29'0 0.0
2018-Apr-22 16:59N 48°23' W 004°29'0 0.0
2018-Apr-22 16:29N 48°23' W 004°29'0 0.0
2018-Apr-22 15:59N 48°23' W 004°29'0 0.0
2018-Apr-22 15:29N 48°23' W 004°29'0 0.0
2018-Apr-22 15:00N 48°23' W 004°29'3 5.9
2018-Apr-22 14:30N 48°20' W 004°29'5 9.3
2018-Apr-22 14:00N 48°18' W 004°23'2 3.5
2018-Apr-22 13:30N 48°19' W 004°20'0 0.7
2018-Apr-22 13:00N 48°18' W 004°21'1 1.8
2018-Apr-22 12:30N 48°18' W 004°22'2 4.3
2018-Apr-22 12:00N 48°19' W 004°19'0 0.4
2018-Apr-22 11:30N 48°19' W 004°19'0 0.1
2018-Apr-22 11:00N 48°19' W 004°19'1 2.4
2018-Apr-22 10:30N 48°18' W 004°17'1 2.2
2018-Apr-22 10:00N 48°18' W 004°16'0 0.1
2018-Apr-22 09:30N 48°18' W 004°16'1 1.4
2018-Apr-22 09:00N 48°17' W 004°15'2 3.7
2018-Apr-22 08:31N 48°18' W 004°17'0 0.7
2018-Apr-22 08:00N 48°18' W 004°17'0 0.5
2018-Apr-22 07:30N 48°18' W 004°17'5 9.0
2018-Apr-22 07:00N 48°18' W 004°24'4 8.0
2018-Apr-22 06:30N 48°20' W 004°29'3 5.2
2018-Apr-22 06:00N 48°23' W 004°29'0 0.1
2018-Apr-22 05:28N 48°23' W 004°29'0 0.0
2018-Apr-22 04:58N 48°23' W 004°29'0 0.0
2018-Apr-22 04:28N 48°23' W 004°29'0 0.0
2018-Apr-22 03:58N 48°23' W 004°29'0 0.0
2018-Apr-22 03:28N 48°23' W 004°29'0 0.0
2018-Apr-22 03:01N 48°23' W 004°29'0 0.0
2018-Apr-22 02:31N 48°23' W 004°29'0 0.0
2018-Apr-22 02:01N 48°23' W 004°29'0 0.0
2018-Apr-22 01:31N 48°23' W 004°29'0 0.0
2018-Apr-22 01:01N 48°23' W 004°29'0 0.0
2018-Apr-22 00:31N 48°23' W 004°29'0 0.0
2018-Apr-22 00:00N 48°23' W 004°29'0 0.0
2018-Apr-21 23:30N 48°23' W 004°29'0 0.0
2018-Apr-21 23:00N 48°23' W 004°29'0 0.0
2018-Apr-21 22:30N 48°23' W 004°29'0 0.0
2018-Apr-21 22:00N 48°23' W 004°29'0 0.0
2018-Apr-21 21:30N 48°23' W 004°29'0 0.0
2018-Apr-21 21:00N 48°23' W 004°29'0 0.0
2018-Apr-21 20:30N 48°23' W 004°29'0 0.0
2018-Apr-21 20:00N 48°23' W 004°29'0 0.0
2018-Apr-21 19:30N 48°23' W 004°29'0 0.0
2018-Apr-21 19:00N 48°23' W 004°29'0 0.0
2018-Apr-21 18:30N 48°23' W 004°29'0 0.0
2018-Apr-21 18:00N 48°23' W 004°29'0 0.0
2018-Apr-21 17:30N 48°23' W 004°29'0 0.0
2018-Apr-21 17:00N 48°23' W 004°29'0 0.0
2018-Apr-21 16:30N 48°23' W 004°29'0 0.0
2018-Apr-21 16:00N 48°23' W 004°29'0 0.0
2018-Apr-21 15:30N 48°23' W 004°29'1 1.3
2018-Apr-21 15:00N 48°22' W 004°29'4 8.2
2018-Apr-21 14:30N 48°19' W 004°28'1 1.3
2018-Apr-21 14:00N 48°18' W 004°28'1 1.7
2018-Apr-21 13:30N 48°18' W 004°29'1 1.1
2018-Apr-21 13:00N 48°18' W 004°28'0 0.3
2018-Apr-21 12:31N 48°18' W 004°28'0 0.3
2018-Apr-21 12:00N 48°18' W 004°28'0 0.5
2018-Apr-21 11:30N 48°18' W 004°28'0 0.1
2018-Apr-21 11:00N 48°18' W 004°28'1 2.9
2018-Apr-21 10:30N 48°19' W 004°29'2 3.5
2018-Apr-21 10:00N 48°19' W 004°32'0 0.6
2018-Apr-21 09:30N 48°19' W 004°31'0 0.1
2018-Apr-21 09:01N 48°19' W 004°31'1 1.3
2018-Apr-21 08:31N 48°19' W 004°32'0 0.7
2018-Apr-21 08:01N 48°18' W 004°32'1 1.9
2018-Apr-21 07:30N 48°19' W 004°31'0 0.8
2018-Apr-21 07:00N 48°19' W 004°31'1 2.2
2018-Apr-21 06:30N 48°20' W 004°30'3 5.0
2018-Apr-21 06:00N 48°23' W 004°29'0 0.4
2018-Apr-21 05:30N 48°23' W 004°29'0 0.0
2018-Apr-21 05:00N 48°23' W 004°29'0 0.0
2018-Apr-21 04:30N 48°23' W 004°29'0 0.0
2018-Apr-21 04:00N 48°23' W 004°29'0 0.0
2018-Apr-21 03:30N 48°23' W 004°29'0 0.0
2018-Apr-21 03:00N 48°23' W 004°29'0 0.0
2018-Apr-21 02:30N 48°23' W 004°29'0 0.0
2018-Apr-21 02:00N 48°23' W 004°29'0 0.0
2018-Apr-21 01:30N 48°23' W 004°29'0 0.0
2018-Apr-21 01:00N 48°23' W 004°29'0 0.0
2018-Apr-21 00:30N 48°23' W 004°29'0 0.0
2018-Apr-21 00:00N 48°23' W 004°29'0 0.0
2018-Apr-20 23:30N 48°23' W 004°29'0 0.0
2018-Apr-20 23:00N 48°23' W 004°29'0 0.0
2018-Apr-20 22:30N 48°23' W 004°29'0 0.0
2018-Apr-20 22:00N 48°23' W 004°29'0 0.0
2018-Apr-20 21:30N 48°23' W 004°29'0 0.0
2018-Apr-20 21:00N 48°23' W 004°29'0 0.0
2018-Apr-20 20:30N 48°23' W 004°29'0 0.0
2018-Apr-20 20:00N 48°23' W 004°29'0 0.0
2018-Apr-20 19:30N 48°23' W 004°29'0 0.0
2018-Apr-20 19:00N 48°23' W 004°29'0 0.0
2018-Apr-20 18:30N 48°23' W 004°29'0 0.0
2018-Apr-20 18:00N 48°23' W 004°29'0 0.0
2018-Apr-20 17:30N 48°23' W 004°29'0 0.0
2018-Apr-20 17:00N 48°23' W 004°29'0 0.0
2018-Apr-20 16:30N 48°23' W 004°29'0 0.0
2018-Apr-20 16:00N 48°23' W 004°29'0 0.0
2018-Apr-20 15:30N 48°23' W 004°29'0 0.0
2018-Apr-20 15:00N 48°23' W 004°29'0 0.0
2018-Apr-20 14:30N 48°23' W 004°29'0 0.0
2018-Apr-20 14:00N 48°23' W 004°29'0 0.0
2018-Apr-20 13:30N 48°23' W 004°29'0 0.0
2018-Apr-20 13:00N 48°23' W 004°29'0 0.0
2018-Apr-20 12:30N 48°23' W 004°29'0 0.0
2018-Apr-20 12:00N 48°23' W 004°29'0 0.0
2018-Apr-20 11:30N 48°23' W 004°29'0 0.0
2018-Apr-20 11:00N 48°23' W 004°29'0 0.0
2018-Apr-20 10:30N 48°23' W 004°29'0 0.0
2018-Apr-20 10:00N 48°23' W 004°29'0 0.0
2018-Apr-20 09:30N 48°23' W 004°29'0 0.0
2018-Apr-20 09:00N 48°23' W 004°29'0 0.0
2018-Apr-20 08:30N 48°23' W 004°29'0 0.0
2018-Apr-20 08:00N 48°23' W 004°29'0 0.0
2018-Apr-20 07:30N 48°23' W 004°29'0 0.0
2018-Apr-20 07:00N 48°23' W 004°29'0 0.0
2018-Apr-20 06:30N 48°23' W 004°29'0 0.0
2018-Apr-20 06:00N 48°23' W 004°29'0 0.0
2018-Apr-20 05:30N 48°23' W 004°29'0 0.0
2018-Apr-20 05:00N 48°23' W 004°29'0 0.0
2018-Apr-20 04:30N 48°23' W 004°29'0 0.0
2018-Apr-20 04:00N 48°23' W 004°29'0 0.0
2018-Apr-20 03:30N 48°23' W 004°29'0 0.0
2018-Apr-20 03:00N 48°23' W 004°29'0 0.0
2018-Apr-20 02:30N 48°23' W 004°29'0 0.0
2018-Apr-20 02:00N 48°23' W 004°29'0 0.0
2018-Apr-20 01:30N 48°23' W 004°29'0 0.0
2018-Apr-20 01:00N 48°23' W 004°29'0 0.0
2018-Apr-20 00:30N 48°23' W 004°29'0 0.0
2018-Apr-20 00:00N 48°23' W 004°29'0 0.0
2018-Apr-19 23:30N 48°23' W 004°29'0 0.0
2018-Apr-19 23:00N 48°23' W 004°29'0 0.0
2018-Apr-19 22:30N 48°23' W 004°29'0 0.0
2018-Apr-19 22:00N 48°23' W 004°29'0 0.0
2018-Apr-19 21:30N 48°23' W 004°29'0 0.0
2018-Apr-19 21:00N 48°23' W 004°29'0 0.0
2018-Apr-19 20:30N 48°23' W 004°29'0 0.0
2018-Apr-19 20:00N 48°23' W 004°29'0 0.0
2018-Apr-19 19:30N 48°23' W 004°29'0 0.0
2018-Apr-19 19:00N 48°23' W 004°29'0 0.0
2018-Apr-19 18:30N 48°23' W 004°29'0 0.0
2018-Apr-19 18:00N 48°23' W 004°29'0 0.0
2018-Apr-19 17:30N 48°23' W 004°29'0 0.0
2018-Apr-19 17:00N 48°23' W 004°29'0 0.0
2018-Apr-19 16:30N 48°23' W 004°29'0 0.0
2018-Apr-19 16:00N 48°23' W 004°29'0 0.0
2018-Apr-19 15:30N 48°23' W 004°29'0 0.0
2018-Apr-19 15:00N 48°23' W 004°29'0 0.0
2018-Apr-19 14:30N 48°23' W 004°29'0 0.0
2018-Apr-19 13:59N 48°23' W 004°29'0 0.0
2018-Apr-19 13:20N 48°23' W 004°29'0 0.0
2018-Apr-19 12:59N 48°23' W 004°29'0 0.0
2018-Apr-19 12:30N 48°23' W 004°29'0 0.0
2018-Apr-19 12:00N 48°23' W 004°29'0 0.0
2018-Apr-19 11:30N 48°23' W 004°29'0 0.0
2018-Apr-19 11:00N 48°23' W 004°29'0 0.0
2018-Apr-19 10:30N 48°23' W 004°29'0 0.0
2018-Apr-19 10:00N 48°23' W 004°29'0 0.0
2018-Apr-19 09:30N 48°23' W 004°29'0 0.0
2018-Apr-19 09:00N 48°23' W 004°29'0 0.0
2018-Apr-19 08:30N 48°23' W 004°29'0 0.0
2018-Apr-19 08:00N 48°23' W 004°29'0 0.0
2018-Apr-19 07:30N 48°23' W 004°29'0 0.0
2018-Apr-19 07:00N 48°23' W 004°29'0 0.0
2018-Apr-19 06:30N 48°23' W 004°29'0 0.0
2018-Apr-19 06:00N 48°23' W 004°29'0 0.0
2018-Apr-19 05:30N 48°23' W 004°29'0 0.0
2018-Apr-19 05:00N 48°23' W 004°29'0 0.0
2018-Apr-19 04:30N 48°23' W 004°29'0 0.0
2018-Apr-19 04:00N 48°23' W 004°29'0 0.0
2018-Apr-19 03:30N 48°23' W 004°29'0 0.0
2018-Apr-19 03:00N 48°23' W 004°29'0 0.0
2018-Apr-19 02:30N 48°23' W 004°29'0 0.0
2018-Apr-19 02:00N 48°23' W 004°29'0 0.0
2018-Apr-19 01:30N 48°23' W 004°29'0 0.0
2018-Apr-19 01:00N 48°23' W 004°29'0 0.0
2018-Apr-19 00:30N 48°23' W 004°29'0 0.0
2018-Apr-19 00:00N 48°23' W 004°29'0 0.0
2018-Apr-18 23:30N 48°23' W 004°29'0 0.0
2018-Apr-18 23:00N 48°23' W 004°29'0 0.0
2018-Apr-18 22:30N 48°23' W 004°29'0 0.0
2018-Apr-18 22:00N 48°23' W 004°29'0 0.0
2018-Apr-18 21:30N 48°23' W 004°29'0 0.0
2018-Apr-18 21:00N 48°23' W 004°29'0 0.0
2018-Apr-18 20:30N 48°23' W 004°29'0 0.0
2018-Apr-18 20:00N 48°23' W 004°29'0 0.0
2018-Apr-18 19:30N 48°23' W 004°29'0 0.0
2018-Apr-18 19:00N 48°23' W 004°29'0 0.0
2018-Apr-18 18:30N 48°23' W 004°29'0 0.0
2018-Apr-18 18:00N 48°23' W 004°29'0 0.0
2018-Apr-18 17:30N 48°23' W 004°29'0 0.0
2018-Apr-18 17:00N 48°23' W 004°29'0 0.1
2018-Apr-18 16:31N 48°23' W 004°29'0 0.1
2018-Apr-18 16:00N 48°23' W 004°29'0 0.0
2018-Apr-18 15:30N 48°23' W 004°29'0 0.0
2018-Apr-18 15:00N 48°23' W 004°29'2 4.8
2018-Apr-18 14:30N 48°21' W 004°29'0 0.3
2018-Apr-18 14:00N 48°20' W 004°29'0 0.4
2018-Apr-18 13:31N 48°20' W 004°29'2 3.0
2018-Apr-18 13:00N 48°20' W 004°31'0 0.5
2018-Apr-18 12:30N 48°20' W 004°31'0 0.1
2018-Apr-18 12:00N 48°20' W 004°31'1 1.2
2018-Apr-18 11:30N 48°20' W 004°30'1 1.6
2018-Apr-18 11:00N 48°20' W 004°31'1 1.7
2018-Apr-18 10:30N 48°20' W 004°30'0 0.8
2018-Apr-18 10:00N 48°20' W 004°30'3 5.3
2018-Apr-18 09:31N 48°22' W 004°28'0 0.2
2018-Apr-18 08:59N 48°22' W 004°28'0 0.4
2018-Apr-18 08:28N 48°22' W 004°28'0 0.1
2018-Apr-18 07:59N 48°22' W 004°28'0 0.6
2018-Apr-18 07:31N 48°22' W 004°28'0 0.1
2018-Apr-18 07:00N 48°22' W 004°28'1 1.7
2018-Apr-18 06:30N 48°22' W 004°29'1 1.9
2018-Apr-18 05:58N 48°23' W 004°29'0 0.0
2018-Apr-18 05:28N 48°23' W 004°29'0 0.0
2018-Apr-18 04:58N 48°23' W 004°29'0 0.0
2018-Apr-18 04:28N 48°23' W 004°29'0 0.0
2018-Apr-18 03:58N 48°23' W 004°29'0 0.0
2018-Apr-18 03:28N 48°23' W 004°29'0 0.0
2018-Apr-18 02:58N 48°23' W 004°29'0 0.0
2018-Apr-18 02:28N 48°23' W 004°29'0 0.0
2018-Apr-18 01:58N 48°23' W 004°29'0 0.0
2018-Apr-18 01:28N 48°23' W 004°29'0 0.0
2018-Apr-18 00:58N 48°23' W 004°29'0 0.0
2018-Apr-18 00:28N 48°23' W 004°29'0 0.0
2018-Apr-17 23:58N 48°23' W 004°29'0 0.0
2018-Apr-17 23:28N 48°23' W 004°29'0 0.0
2018-Apr-17 22:58N 48°23' W 004°29'0 0.0
2018-Apr-17 22:28N 48°23' W 004°29'0 0.0
2018-Apr-17 21:58N 48°23' W 004°29'0 0.0
2018-Apr-17 21:28N 48°23' W 004°29'0 0.0
2018-Apr-17 20:58N 48°23' W 004°29'0 0.0
2018-Apr-17 20:28N 48°23' W 004°29'0 0.0
2018-Apr-17 19:58N 48°23' W 004°29'0 0.0
2018-Apr-17 19:28N 48°23' W 004°29'0 0.0
2018-Apr-17 18:58N 48°23' W 004°29'0 0.0
2018-Apr-17 18:28N 48°23' W 004°29'0 0.0
2018-Apr-17 17:58N 48°23' W 004°29'0 0.0
2018-Apr-17 17:28N 48°23' W 004°29'0 0.0
2018-Apr-17 16:58N 48°23' W 004°29'0 0.0
2018-Apr-17 16:28N 48°23' W 004°29'0 0.0
2018-Apr-17 15:58N 48°23' W 004°29'0 0.0
2018-Apr-17 15:28N 48°23' W 004°29'0 0.0
2018-Apr-17 14:58N 48°23' W 004°29'0 0.0
2018-Apr-17 14:30N 48°23' W 004°29'3 5.3
2018-Apr-17 14:00N 48°20' W 004°29'3 6.3
2018-Apr-17 13:31N 48°18' W 004°25'2 3.1
2018-Apr-17 13:00N 48°18' W 004°23'0 0.4
2018-Apr-17 12:30N 48°18' W 004°23'0 0.6
2018-Apr-17 12:00N 48°18' W 004°23'1 2.9
2018-Apr-17 11:31N 48°18' W 004°25'0 0.3
2018-Apr-17 11:00N 48°18' W 004°25'3 5.4
2018-Apr-17 10:30N 48°19' W 004°28'1 2.0
2018-Apr-17 10:00N 48°20' W 004°29'0 0.1
2018-Apr-17 09:30N 48°20' W 004°29'0 0.3
2018-Apr-17 09:01N 48°20' W 004°29'3 5.1
2018-Apr-17 08:31N 48°19' W 004°26'1 2.5
2018-Apr-17 08:00N 48°18' W 004°24'0 0.8
2018-Apr-17 07:30N 48°18' W 004°25'3 6.8
2018-Apr-17 07:00N 48°20' W 004°29'3 6.2
2018-Apr-17 06:30N 48°23' W 004°29'0 0.1
2018-Apr-17 06:01N 48°23' W 004°29'0 0.0
2018-Apr-17 05:30N 48°23' W 004°29'0 0.0
2018-Apr-17 05:00N 48°23' W 004°29'0 0.0
2018-Apr-17 04:30N 48°23' W 004°29'0 0.0
2018-Apr-17 04:00N 48°23' W 004°29'0 0.0
2018-Apr-17 03:30N 48°23' W 004°29'0 0.0
2018-Apr-17 03:00N 48°23' W 004°29'0 0.0
2018-Apr-17 02:30N 48°23' W 004°29'0 0.0
2018-Apr-17 02:00N 48°23' W 004°29'0 0.0
2018-Apr-17 01:30N 48°23' W 004°29'0 0.0
2018-Apr-17 01:00N 48°23' W 004°29'0 0.0
2018-Apr-17 00:30N 48°23' W 004°29'0 0.0
2018-Apr-17 00:00N 48°23' W 004°29'0 0.0
2018-Apr-16 23:30N 48°23' W 004°29'0 0.0
2018-Apr-16 23:00N 48°23' W 004°29'0 0.0
2018-Apr-16 22:30N 48°23' W 004°29'0 0.0
2018-Apr-16 22:00N 48°23' W 004°29'0 0.0
2018-Apr-16 21:30N 48°23' W 004°29'0 0.0
2018-Apr-16 21:00N 48°23' W 004°29'0 0.0
2018-Apr-16 20:30N 48°23' W 004°29'0 0.0
2018-Apr-16 20:00N 48°23' W 004°29'0 0.0
2018-Apr-16 19:30N 48°23' W 004°29'0 0.0
2018-Apr-16 19:00N 48°23' W 004°29'0 0.0
2018-Apr-16 18:30N 48°23' W 004°29'0 0.0
2018-Apr-16 18:00N 48°23' W 004°29'0 0.0
2018-Apr-16 17:30N 48°23' W 004°29'0 0.0
2018-Apr-16 17:00N 48°23' W 004°29'0 0.0
2018-Apr-16 16:30N 48°23' W 004°29'0 0.0
2018-Apr-16 16:00N 48°23' W 004°29'0 0.0
2018-Apr-16 15:30N 48°23' W 004°29'0 0.0
2018-Apr-16 15:00N 48°23' W 004°29'0 0.0
2018-Apr-16 14:30N 48°23' W 004°29'0 0.0
2018-Apr-16 14:00N 48°23' W 004°29'0 0.0
2018-Apr-16 13:30N 48°23' W 004°29'0 0.0
2018-Apr-16 13:00N 48°23' W 004°29'3 5.8
2018-Apr-16 12:30N 48°20' W 004°29'4 7.3
2018-Apr-16 12:01N 48°18' W 004°25'0 0.1
2018-Apr-16 11:30N 48°18' W 004°25'0 0.2
2018-Apr-16 11:01N 48°18' W 004°25'0 0.0
2018-Apr-16 10:31N 48°18' W 004°25'0 0.1
2018-Apr-16 10:00N 48°18' W 004°25'0 0.4
2018-Apr-16 09:30N 48°18' W 004°25'0 0.4
2018-Apr-16 09:00N 48°18' W 004°24'0 0.4
2018-Apr-16 08:30N 48°18' W 004°25'0 0.1
2018-Apr-16 08:00N 48°18' W 004°25'0 0.3
2018-Apr-16 07:31N 48°18' W 004°25'0 0.4
2018-Apr-16 07:01N 48°18' W 004°24'4 7.5
2018-Apr-16 06:30N 48°20' W 004°29'3 6.0
2018-Apr-16 06:00N 48°23' W 004°29'0 0.0
2018-Apr-16 05:30N 48°23' W 004°29'0 0.0
2018-Apr-16 05:00N 48°23' W 004°29'0 0.0
2018-Apr-16 04:30N 48°23' W 004°29'0 0.0
2018-Apr-16 04:00N 48°23' W 004°29'0 0.0
2018-Apr-16 03:30N 48°23' W 004°29'0 0.0
2018-Apr-16 03:00N 48°23' W 004°29'0 0.0
2018-Apr-16 02:30N 48°23' W 004°29'0 0.0
2018-Apr-16 02:00N 48°23' W 004°29'0 0.0
2018-Apr-16 01:30N 48°23' W 004°29'0 0.0
2018-Apr-16 01:00N 48°23' W 004°29'0 0.0
2018-Apr-16 00:30N 48°23' W 004°29'0 0.0
2018-Apr-16 00:00N 48°23' W 004°29'0 0.0
2018-Apr-15 23:30N 48°23' W 004°29'0 0.0
2018-Apr-15 23:00N 48°23' W 004°29'0 0.0
2018-Apr-15 22:30N 48°23' W 004°29'0 0.0
2018-Apr-15 22:00N 48°23' W 004°29'0 0.0
2018-Apr-15 21:30N 48°23' W 004°29'0 0.0
2018-Apr-15 21:00N 48°23' W 004°29'0 0.0
2018-Apr-15 20:30N 48°23' W 004°29'0 0.0
2018-Apr-15 20:00N 48°23' W 004°29'0 0.0
2018-Apr-15 19:30N 48°23' W 004°29'0 0.0
2018-Apr-15 19:00N 48°23' W 004°29'0 0.0
2018-Apr-15 18:30N 48°23' W 004°29'0 0.0
2018-Apr-15 18:00N 48°23' W 004°29'0 0.0
2018-Apr-15 17:30N 48°23' W 004°29'0 0.0
2018-Apr-15 17:00N 48°23' W 004°29'0 0.0
2018-Apr-15 16:30N 48°23' W 004°29'0 0.0
2018-Apr-15 16:00N 48°23' W 004°29'0 0.0
2018-Apr-15 15:30N 48°23' W 004°29'1 1.3
2018-Apr-15 15:00N 48°22' W 004°29'2 4.6
2018-Apr-15 14:31N 48°20' W 004°29'0 0.1
2018-Apr-15 14:01N 48°20' W 004°29'0 0.1
2018-Apr-15 13:31N 48°20' W 004°29'0 0.5
2018-Apr-15 13:01N 48°20' W 004°29'0 0.0
2018-Apr-15 12:30N 48°20' W 004°29'0 0.4
2018-Apr-15 12:01N 48°21' W 004°29'0 0.2
2018-Apr-15 11:31N 48°21' W 004°29'0 0.3
2018-Apr-15 11:01N 48°21' W 004°29'0 0.0
2018-Apr-15 10:31N 48°21' W 004°29'0 0.3
2018-Apr-15 10:01N 48°21' W 004°29'0 0.3
2018-Apr-15 09:31N 48°21' W 004°29'0 0.7
2018-Apr-15 09:00N 48°20' W 004°29'0 0.3
2018-Apr-15 08:31N 48°20' W 004°29'0 0.5
2018-Apr-15 08:01N 48°21' W 004°29'0 0.5
2018-Apr-15 07:31N 48°20' W 004°29'0 0.6
2018-Apr-15 07:00N 48°20' W 004°29'3 6.4
2018-Apr-15 06:31N 48°20' W 004°33'3 6.6
2018-Apr-15 06:01N 48°18' W 004°36'0 0.3
2018-Apr-15 05:28N 48°17' W 004°35'0 0.0
2018-Apr-15 04:58N 48°17' W 004°35'0 0.0
2018-Apr-15 04:28N 48°17' W 004°35'0 0.0
2018-Apr-15 03:58N 48°17' W 004°35'0 0.0
2018-Apr-15 03:28N 48°17' W 004°35'0 0.0
2018-Apr-15 02:58N 48°17' W 004°35'  
Track history (hours):
 
Tides and Currents Weather Stations Pressure Air Temp Water Temp Dewpoint Dewpoint Depression Visibility Wind Speed Wind Dir Waves Ship Positions

Oceanographic research ship Thalia (France)

Detailed information on ship capabilities available from University of Delaware's Ocean Information Center.

Last reported at 2018-Apr-25 02:29 UTC. Time now 2018-Apr-25 02:44 UTC.
Position N 48°23' W 004°29'.

Length 25 m; beam 7 m.

Type: Fishing. MMSI: 227270000.

Date/timePositionNaut miles runAvg speedWind from/ knotsBaromVisibWave heightAir tempDewpointWater temp
2018-Apr-25 02:29N 48°23' W 004°29'0 0.0
2018-Apr-25 01:59N 48°23' W 004°29'0 0.0
2018-Apr-25 01:29N 48°23' W 004°29'0 0.0
2018-Apr-25 00:59N 48°23' W 004°29'0 0.0
2018-Apr-25 00:29N 48°23' W 004°29'0 0.0
2018-Apr-24 23:59N 48°23' W 004°29'0 0.0
2018-Apr-24 23:29N 48°23' W 004°29'0 0.0
2018-Apr-24 22:59N 48°23' W 004°29'0 0.0
2018-Apr-24 22:29N 48°23' W 004°29'0 0.0
2018-Apr-24 21:59N 48°23' W 004°29'0 0.0
2018-Apr-24 21:29N 48°23' W 004°29'0 0.0
2018-Apr-24 20:59N 48°23' W 004°29'0 0.0
2018-Apr-24 20:29N 48°23' W 004°29'0 0.0
2018-Apr-24 19:59N 48°23' W 004°29'0 0.0
2018-Apr-24 19:29N 48°23' W 004°29'0 0.0
2018-Apr-24 18:59N 48°23' W 004°29'0 0.0
2018-Apr-24 18:29N 48°23' W 004°29'0 0.0
2018-Apr-24 17:59N 48°23' W 004°29'0 0.0
2018-Apr-24 17:29N 48°23' W 004°29'0 0.0
2018-Apr-24 16:59N 48°23' W 004°29'0 0.0
2018-Apr-24 16:29N 48°23' W 004°29'0 0.0
2018-Apr-24 15:59N 48°23' W 004°29'0 0.0
2018-Apr-24 15:29N 48°23' W 004°29'0 0.0
2018-Apr-24 14:59N 48°23' W 004°29'1 1.2
2018-Apr-24 14:30N 48°22' W 004°29'4 8.0
2018-Apr-24 14:00N 48°19' W 004°27'3 6.0
2018-Apr-24 13:30N 48°19' W 004°22'0 1.0
2018-Apr-24 13:01N 48°19' W 004°22'1 1.7
2018-Apr-24 12:30N 48°18' W 004°21'1 2.2
2018-Apr-24 12:00N 48°19' W 004°19'0 0.4
2018-Apr-24 11:31N 48°19' W 004°19'1 2.7
2018-Apr-24 11:01N 48°18' W 004°21'2 3.1
2018-Apr-24 10:30N 48°18' W 004°23'2 4.2
2018-Apr-24 10:00N 48°18' W 004°26'0 0.6
2018-Apr-24 09:30N 48°18' W 004°26'0 0.3
2018-Apr-24 09:00N 48°18' W 004°26'2 3.2
2018-Apr-24 08:30N 48°20' W 004°26'0 0.8
2018-Apr-24 08:00N 48°19' W 004°25'1 1.5
2018-Apr-24 07:30N 48°19' W 004°26'0 0.2
2018-Apr-24 07:00N 48°19' W 004°26'3 5.2
2018-Apr-24 06:30N 48°21' W 004°29'2 4.0
2018-Apr-24 06:00N 48°23' W 004°29'0 0.0
2018-Apr-24 05:30N 48°23' W 004°29'0 0.0
2018-Apr-24 05:00N 48°23' W 004°29'0 0.0
2018-Apr-24 04:30N 48°23' W 004°29'0 0.0
2018-Apr-24 04:00N 48°23' W 004°29'0 0.0
2018-Apr-24 03:30N 48°23' W 004°29'0 0.0
2018-Apr-24 03:00N 48°23' W 004°29'0 0.0
2018-Apr-24 02:30N 48°23' W 004°29'0 0.0
2018-Apr-24 02:00N 48°23' W 004°29'0 0.0
2018-Apr-24 01:30N 48°23' W 004°29'0 0.0
2018-Apr-24 01:00N 48°23' W 004°29'0 0.0
2018-Apr-24 00:30N 48°23' W 004°29'0 0.0
2018-Apr-24 00:00N 48°23' W 004°29'0 0.0
2018-Apr-23 23:30N 48°23' W 004°29'0 0.0
2018-Apr-23 23:00N 48°23' W 004°29'0 0.0
2018-Apr-23 22:30N 48°23' W 004°29'0 0.0
2018-Apr-23 22:00N 48°23' W 004°29'0 0.0
2018-Apr-23 21:30N 48°23' W 004°29'0 0.0
2018-Apr-23 21:00N 48°23' W 004°29'0 0.0
2018-Apr-23 20:30N 48°23' W 004°29'0 0.0
2018-Apr-23 20:00N 48°23' W 004°29'0 0.0
2018-Apr-23 19:30N 48°23' W 004°29'0 0.0
2018-Apr-23 19:00N 48°23' W 004°29'0 0.0
2018-Apr-23 18:30N 48°23' W 004°29'0 0.0
2018-Apr-23 18:00N 48°23' W 004°29'0 0.0
2018-Apr-23 17:30N 48°23' W 004°29'0 0.0
2018-Apr-23 17:00N 48°23' W 004°29'0 0.0
2018-Apr-23 16:30N 48°23' W 004°29'0 0.0
2018-Apr-23 15:53N 48°23' W 004°29'0 0.0
2018-Apr-23 15:30N 48°23' W 004°29'0 0.0
2018-Apr-23 15:00N 48°23' W 004°29'1 1.8
2018-Apr-23 14:30N 48°22' W 004°29'2 3.3
2018-Apr-23 14:00N 48°23' W 004°27'1 2.2
2018-Apr-23 13:30N 48°23' W 004°25'1 1.8
2018-Apr-23 13:00N 48°23' W 004°27'0 0.9
2018-Apr-23 12:30N 48°22' W 004°27'1 2.5
2018-Apr-23 12:00N 48°23' W 004°25'0 0.8
2018-Apr-23 11:30N 48°23' W 004°26'1 1.4
2018-Apr-23 11:00N 48°23' W 004°25'0 0.8
2018-Apr-23 10:30N 48°23' W 004°26'0 0.9
2018-Apr-23 10:00N 48°23' W 004°25'0 0.6
2018-Apr-23 09:30N 48°23' W 004°25'0 0.8
2018-Apr-23 09:00N 48°23' W 004°25'0 0.9
2018-Apr-23 08:30N 48°23' W 004°24'0 0.4
2018-Apr-23 08:00N 48°23' W 004°24'0 0.8
2018-Apr-23 07:30N 48°24' W 004°23'1 1.9
2018-Apr-23 07:00N 48°23' W 004°25'3 5.2
2018-Apr-23 06:29N 48°23' W 004°29'0 0.0
2018-Apr-23 05:59N 48°23' W 004°29'0 0.0
2018-Apr-23 05:29N 48°23' W 004°29'0 0.0
2018-Apr-23 04:59N 48°23' W 004°29'0 0.0
2018-Apr-23 04:29N 48°23' W 004°29'0 0.0
2018-Apr-23 03:59N 48°23' W 004°29'0 0.0
2018-Apr-23 03:29N 48°23' W 004°29'0 0.0
2018-Apr-23 02:59N 48°23' W 004°29'0 0.0
2018-Apr-23 02:29N 48°23' W 004°29'0 0.0
2018-Apr-23 01:59N 48°23' W 004°29'0 0.0
2018-Apr-23 01:29N 48°23' W 004°29'0 0.0
2018-Apr-23 00:59N 48°23' W 004°29'0 0.0
2018-Apr-23 00:29N 48°23' W 004°29'0 0.0
2018-Apr-22 23:59N 48°23' W 004°29'0 0.0
2018-Apr-22 23:29N 48°23' W 004°29'0 0.0
2018-Apr-22 22:59N 48°23' W 004°29'0 0.0
2018-Apr-22 22:29N 48°23' W 004°29'0 0.0
2018-Apr-22 21:59N 48°23' W 004°29'0 0.0
2018-Apr-22 21:29N 48°23' W 004°29'0 0.0
2018-Apr-22 20:59N 48°23' W 004°29'0 0.0
2018-Apr-22 20:29N 48°23' W 004°29'0 0.0
2018-Apr-22 19:59N 48°23' W 004°29'0 0.0
2018-Apr-22 19:29N 48°23' W 004°29'0 0.0
2018-Apr-22 18:59N 48°23' W 004°29'0 0.0
2018-Apr-22 18:29N 48°23' W 004°29'0 0.0
2018-Apr-22 17:59N 48°23' W 004°29'0 0.0
2018-Apr-22 17:29N 48°23' W 004°29'0 0.0
2018-Apr-22 16:59N 48°23' W 004°29'0 0.0
2018-Apr-22 16:29N 48°23' W 004°29'0 0.0
2018-Apr-22 15:59N 48°23' W 004°29'0 0.0
2018-Apr-22 15:29N 48°23' W 004°29'0 0.0
2018-Apr-22 15:00N 48°23' W 004°29'3 5.9
2018-Apr-22 14:30N 48°20' W 004°29'5 9.3
2018-Apr-22 14:00N 48°18' W 004°23'2 3.5
2018-Apr-22 13:30N 48°19' W 004°20'0 0.7
2018-Apr-22 13:00N 48°18' W 004°21'1 1.8
2018-Apr-22 12:30N 48°18' W 004°22'2 4.3
2018-Apr-22 12:00N 48°19' W 004°19'0 0.4
2018-Apr-22 11:30N 48°19' W 004°19'0 0.1
2018-Apr-22 11:00N 48°19' W 004°19'1 2.4
2018-Apr-22 10:30N 48°18' W 004°17'1 2.2
2018-Apr-22 10:00N 48°18' W 004°16'0 0.1
2018-Apr-22 09:30N 48°18' W 004°16'1 1.4
2018-Apr-22 09:00N 48°17' W 004°15'2 3.7
2018-Apr-22 08:31N 48°18' W 004°17'0 0.7
2018-Apr-22 08:00N 48°18' W 004°17'0 0.5
2018-Apr-22 07:30N 48°18' W 004°17'5 9.0
2018-Apr-22 07:00N 48°18' W 004°24'4 8.0
2018-Apr-22 06:30N 48°20' W 004°29'3 5.2
2018-Apr-22 06:00N 48°23' W 004°29'0 0.1
2018-Apr-22 05:28N 48°23' W 004°29'0 0.0
2018-Apr-22 04:58N 48°23' W 004°29'0 0.0
2018-Apr-22 04:28N 48°23' W 004°29'0 0.0
2018-Apr-22 03:58N 48°23' W 004°29'0 0.0
2018-Apr-22 03:28N 48°23' W 004°29'0 0.0
2018-Apr-22 03:01N 48°23' W 004°29'0 0.0
2018-Apr-22 02:31N 48°23' W 004°29'0 0.0
2018-Apr-22 02:01N 48°23' W 004°29'0 0.0
2018-Apr-22 01:31N 48°23' W 004°29'0 0.0
2018-Apr-22 01:01N 48°23' W 004°29'0 0.0
2018-Apr-22 00:31N 48°23' W 004°29'0 0.0
2018-Apr-22 00:00N 48°23' W 004°29'0 0.0
2018-Apr-21 23:30N 48°23' W 004°29'0 0.0
2018-Apr-21 23:00N 48°23' W 004°29'0 0.0
2018-Apr-21 22:30N 48°23' W 004°29'0 0.0
2018-Apr-21 22:00N 48°23' W 004°29'0 0.0
2018-Apr-21 21:30N 48°23' W 004°29'0 0.0
2018-Apr-21 21:00N 48°23' W 004°29'0 0.0
2018-Apr-21 20:30N 48°23' W 004°29'0 0.0
2018-Apr-21 20:00N 48°23' W 004°29'0 0.0
2018-Apr-21 19:30N 48°23' W 004°29'0 0.0
2018-Apr-21 19:00N 48°23' W 004°29'0 0.0
2018-Apr-21 18:30N 48°23' W 004°29'0 0.0
2018-Apr-21 18:00N 48°23' W 004°29'0 0.0
2018-Apr-21 17:30N 48°23' W 004°29'0 0.0
2018-Apr-21 17:00N 48°23' W 004°29'0 0.0
2018-Apr-21 16:30N 48°23' W 004°29'0 0.0
2018-Apr-21 16:00N 48°23' W 004°29'0 0.0
2018-Apr-21 15:30N 48°23' W 004°29'1 1.3
2018-Apr-21 15:00N 48°22' W 004°29'4 8.2
2018-Apr-21 14:30N 48°19' W 004°28'1 1.3
2018-Apr-21 14:00N 48°18' W 004°28'1 1.7
2018-Apr-21 13:30N 48°18' W 004°29'1 1.1
2018-Apr-21 13:00N 48°18' W 004°28'0 0.3
2018-Apr-21 12:31N 48°18' W 004°28'0 0.3
2018-Apr-21 12:00N 48°18' W 004°28'0 0.5
2018-Apr-21 11:30N 48°18' W 004°28'0 0.1
2018-Apr-21 11:00N 48°18' W 004°28'1 2.9
2018-Apr-21 10:30N 48°19' W 004°29'2 3.5
2018-Apr-21 10:00N 48°19' W 004°32'0 0.6
2018-Apr-21 09:30N 48°19' W 004°31'0 0.1
2018-Apr-21 09:01N 48°19' W 004°31'1 1.3
2018-Apr-21 08:31N 48°19' W 004°32'0 0.7
2018-Apr-21 08:01N 48°18' W 004°32'1 1.9
2018-Apr-21 07:30N 48°19' W 004°31'0 0.8
2018-Apr-21 07:00N 48°19' W 004°31'1 2.2
2018-Apr-21 06:30N 48°20' W 004°30'3 5.0
2018-Apr-21 06:00N 48°23' W 004°29'0 0.4
2018-Apr-21 05:30N 48°23' W 004°29'0 0.0
2018-Apr-21 05:00N 48°23' W 004°29'0 0.0
2018-Apr-21 04:30N 48°23' W 004°29'0 0.0
2018-Apr-21 04:00N 48°23' W 004°29'0 0.0
2018-Apr-21 03:30N 48°23' W 004°29'0 0.0
2018-Apr-21 03:00N 48°23' W 004°29'0 0.0
2018-Apr-21 02:30N 48°23' W 004°29'0 0.0
2018-Apr-21 02:00N 48°23' W 004°29'0 0.0
2018-Apr-21 01:30N 48°23' W 004°29'0 0.0
2018-Apr-21 01:00N 48°23' W 004°29'0 0.0
2018-Apr-21 00:30N 48°23' W 004°29'0 0.0
2018-Apr-21 00:00N 48°23' W 004°29'0 0.0
2018-Apr-20 23:30N 48°23' W 004°29'0 0.0
2018-Apr-20 23:00N 48°23' W 004°29'0 0.0
2018-Apr-20 22:30N 48°23' W 004°29'0 0.0
2018-Apr-20 22:00N 48°23' W 004°29'0 0.0
2018-Apr-20 21:30N 48°23' W 004°29'0 0.0
2018-Apr-20 21:00N 48°23' W 004°29'0 0.0
2018-Apr-20 20:30N 48°23' W 004°29'0 0.0
2018-Apr-20 20:00N 48°23' W 004°29'0 0.0
2018-Apr-20 19:30N 48°23' W 004°29'0 0.0
2018-Apr-20 19:00N 48°23' W 004°29'0 0.0
2018-Apr-20 18:30N 48°23' W 004°29'0 0.0
2018-Apr-20 18:00N 48°23' W 004°29'0 0.0
2018-Apr-20 17:30N 48°23' W 004°29'0 0.0
2018-Apr-20 17:00N 48°23' W 004°29'0 0.0
2018-Apr-20 16:30N 48°23' W 004°29'0 0.0
2018-Apr-20 16:00N 48°23' W 004°29'0 0.0
2018-Apr-20 15:30N 48°23' W 004°29'0 0.0
2018-Apr-20 15:00N 48°23' W 004°29'0 0.0
2018-Apr-20 14:30N 48°23' W 004°29'0 0.0
2018-Apr-20 14:00N 48°23' W 004°29'0 0.0
2018-Apr-20 13:30N 48°23' W 004°29'0 0.0
2018-Apr-20 13:00N 48°23' W 004°29'0 0.0
2018-Apr-20 12:30N 48°23' W 004°29'0 0.0
2018-Apr-20 12:00N 48°23' W 004°29'0 0.0
2018-Apr-20 11:30N 48°23' W 004°29'0 0.0
2018-Apr-20 11:00N 48°23' W 004°29'0 0.0
2018-Apr-20 10:30N 48°23' W 004°29'0 0.0
2018-Apr-20 10:00N 48°23' W 004°29'0 0.0
2018-Apr-20 09:30N 48°23' W 004°29'0 0.0
2018-Apr-20 09:00N 48°23' W 004°29'0 0.0
2018-Apr-20 08:30N 48°23' W 004°29'0 0.0
2018-Apr-20 08:00N 48°23' W 004°29'0 0.0
2018-Apr-20 07:30N 48°23' W 004°29'0 0.0
2018-Apr-20 07:00N 48°23' W 004°29'0 0.0
2018-Apr-20 06:30N 48°23' W 004°29'0 0.0
2018-Apr-20 06:00N 48°23' W 004°29'0 0.0
2018-Apr-20 05:30N 48°23' W 004°29'0 0.0
2018-Apr-20 05:00N 48°23' W 004°29'0 0.0
2018-Apr-20 04:30N 48°23' W 004°29'0 0.0
2018-Apr-20 04:00N 48°23' W 004°29'0 0.0
2018-Apr-20 03:30N 48°23' W 004°29'0 0.0
2018-Apr-20 03:00N 48°23' W 004°29'0 0.0
2018-Apr-20 02:30N 48°23' W 004°29'0 0.0
2018-Apr-20 02:00N 48°23' W 004°29'0 0.0
2018-Apr-20 01:30N 48°23' W 004°29'0 0.0
2018-Apr-20 01:00N 48°23' W 004°29'0 0.0
2018-Apr-20 00:30N 48°23' W 004°29'0 0.0
2018-Apr-20 00:00N 48°23' W 004°29'0 0.0
2018-Apr-19 23:30N 48°23' W 004°29'0 0.0
2018-Apr-19 23:00N 48°23' W 004°29'0 0.0
2018-Apr-19 22:30N 48°23' W 004°29'0 0.0
2018-Apr-19 22:00N 48°23' W 004°29'0 0.0
2018-Apr-19 21:30N 48°23' W 004°29'0 0.0
2018-Apr-19 21:00N 48°23' W 004°29'0 0.0
2018-Apr-19 20:30N 48°23' W 004°29'0 0.0
2018-Apr-19 20:00N 48°23' W 004°29'0 0.0
2018-Apr-19 19:30N 48°23' W 004°29'0 0.0
2018-Apr-19 19:00N 48°23' W 004°29'0 0.0
2018-Apr-19 18:30N 48°23' W 004°29'0 0.0
2018-Apr-19 18:00N 48°23' W 004°29'0 0.0
2018-Apr-19 17:30N 48°23' W 004°29'0 0.0
2018-Apr-19 17:00N 48°23' W 004°29'0 0.0
2018-Apr-19 16:30N 48°23' W 004°29'0 0.0
2018-Apr-19 16:00N 48°23' W 004°29'0 0.0
2018-Apr-19 15:30N 48°23' W 004°29'0 0.0
2018-Apr-19 15:00N 48°23' W 004°29'0 0.0
2018-Apr-19 14:30N 48°23' W 004°29'0 0.0
2018-Apr-19 13:59N 48°23' W 004°29'0 0.0
2018-Apr-19 13:20N 48°23' W 004°29'0 0.0
2018-Apr-19 12:59N 48°23' W 004°29'0 0.0
2018-Apr-19 12:30N 48°23' W 004°29'0 0.0
2018-Apr-19 12:00N 48°23' W 004°29'0 0.0
2018-Apr-19 11:30N 48°23' W 004°29'0 0.0
2018-Apr-19 11:00N 48°23' W 004°29'0 0.0
2018-Apr-19 10:30N 48°23' W 004°29'0 0.0
2018-Apr-19 10:00N 48°23' W 004°29'0 0.0
2018-Apr-19 09:30N 48°23' W 004°29'0 0.0
2018-Apr-19 09:00N 48°23' W 004°29'0 0.0
2018-Apr-19 08:30N 48°23' W 004°29'0 0.0
2018-Apr-19 08:00N 48°23' W 004°29'0 0.0
2018-Apr-19 07:30N 48°23' W 004°29'0 0.0
2018-Apr-19 07:00N 48°23' W 004°29'0 0.0
2018-Apr-19 06:30N 48°23' W 004°29'0 0.0
2018-Apr-19 06:00N 48°23' W 004°29'0 0.0
2018-Apr-19 05:30N 48°23' W 004°29'0 0.0
2018-Apr-19 05:00N 48°23' W 004°29'0 0.0
2018-Apr-19 04:30N 48°23' W 004°29'0 0.0
2018-Apr-19 04:00N 48°23' W 004°29'0 0.0
2018-Apr-19 03:30N 48°23' W 004°29'0 0.0
2018-Apr-19 03:00N 48°23' W 004°29'0 0.0
2018-Apr-19 02:30N 48°23' W 004°29'0 0.0
2018-Apr-19 02:00N 48°23' W 004°29'0 0.0
2018-Apr-19 01:30N 48°23' W 004°29'0 0.0
2018-Apr-19 01:00N 48°23' W 004°29'0 0.0
2018-Apr-19 00:30N 48°23' W 004°29'0 0.0
2018-Apr-19 00:00N 48°23' W 004°29'0 0.0
2018-Apr-18 23:30N 48°23' W 004°29'0 0.0
2018-Apr-18 23:00N 48°23' W 004°29'0 0.0
2018-Apr-18 22:30N 48°23' W 004°29'0 0.0
2018-Apr-18 22:00N 48°23' W 004°29'0 0.0
2018-Apr-18 21:30N 48°23' W 004°29'0 0.0
2018-Apr-18 21:00N 48°23' W 004°29'0 0.0
2018-Apr-18 20:30N 48°23' W 004°29'0 0.0
2018-Apr-18 20:00N 48°23' W 004°29'0 0.0
2018-Apr-18 19:30N 48°23' W 004°29'0 0.0
2018-Apr-18 19:00N 48°23' W 004°29'0 0.0
2018-Apr-18 18:30N 48°23' W 004°29'0 0.0
2018-Apr-18 18:00N 48°23' W 004°29'0 0.0
2018-Apr-18 17:30N 48°23' W 004°29'0 0.0
2018-Apr-18 17:00N 48°23' W 004°29'0 0.1
2018-Apr-18 16:31N 48°23' W 004°29'0 0.1
2018-Apr-18 16:00N 48°23' W 004°29'0 0.0
2018-Apr-18 15:30N 48°23' W 004°29'0 0.0
2018-Apr-18 15:00N 48°23' W 004°29'2 4.8
2018-Apr-18 14:30N 48°21' W 004°29'0 0.3
2018-Apr-18 14:00N 48°20' W 004°29'0 0.4
2018-Apr-18 13:31N 48°20' W 004°29'2 3.0
2018-Apr-18 13:00N 48°20' W 004°31'0 0.5
2018-Apr-18 12:30N 48°20' W 004°31'0 0.1
2018-Apr-18 12:00N 48°20' W 004°31'1 1.2
2018-Apr-18 11:30N 48°20' W 004°30'1 1.6
2018-Apr-18 11:00N 48°20' W 004°31'1 1.7
2018-Apr-18 10:30N 48°20' W 004°30'0 0.8
2018-Apr-18 10:00N 48°20' W 004°30'3 5.3
2018-Apr-18 09:31N 48°22' W 004°28'0 0.2
2018-Apr-18 08:59N 48°22' W 004°28'0 0.4
2018-Apr-18 08:28N 48°22' W 004°28'0 0.1
2018-Apr-18 07:59N 48°22' W 004°28'0 0.6
2018-Apr-18 07:31N 48°22' W 004°28'0 0.1
2018-Apr-18 07:00N 48°22' W 004°28'1 1.7
2018-Apr-18 06:30N 48°22' W 004°29'1 1.9
2018-Apr-18 05:58N 48°23' W 004°29'0 0.0
2018-Apr-18 05:28N 48°23' W 004°29'0 0.0
2018-Apr-18 04:58N 48°23' W 004°29'0 0.0
2018-Apr-18 04:28N 48°23' W 004°29'0 0.0
2018-Apr-18 03:58N 48°23' W 004°29'0 0.0
2018-Apr-18 03:28N 48°23' W 004°29'0 0.0
2018-Apr-18 02:58N 48°23' W 004°29'0 0.0
2018-Apr-18 02:28N 48°23' W 004°29'0 0.0
2018-Apr-18 01:58N 48°23' W 004°29'0 0.0
2018-Apr-18 01:28N 48°23' W 004°29'0 0.0
2018-Apr-18 00:58N 48°23' W 004°29'0 0.0
2018-Apr-18 00:28N 48°23' W 004°29'0 0.0
2018-Apr-17 23:58N 48°23' W 004°29'0 0.0
2018-Apr-17 23:28N 48°23' W 004°29'0 0.0
2018-Apr-17 22:58N 48°23' W 004°29'0 0.0
2018-Apr-17 22:28N 48°23' W 004°29'0 0.0
2018-Apr-17 21:58N 48°23' W 004°29'0 0.0
2018-Apr-17 21:28N 48°23' W 004°29'0 0.0
2018-Apr-17 20:58N 48°23' W 004°29'0 0.0
2018-Apr-17 20:28N 48°23' W 004°29'0 0.0
2018-Apr-17 19:58N 48°23' W 004°29'0 0.0
2018-Apr-17 19:28N 48°23' W 004°29'0 0.0
2018-Apr-17 18:58N 48°23' W 004°29'0 0.0
2018-Apr-17 18:28N 48°23' W 004°29'0 0.0
2018-Apr-17 17:58N 48°23' W 004°29'0 0.0
2018-Apr-17 17:28N 48°23' W 004°29'0 0.0
2018-Apr-17 16:58N 48°23' W 004°29'0 0.0
2018-Apr-17 16:28N 48°23' W 004°29'0 0.0
2018-Apr-17 15:58N 48°23' W 004°29'0 0.0
2018-Apr-17 15:28N 48°23' W 004°29'0 0.0
2018-Apr-17 14:58N 48°23' W 004°29'0 0.0
2018-Apr-17 14:30N 48°23' W 004°29'3 5.3
2018-Apr-17 14:00N 48°20' W 004°29'3 6.3
2018-Apr-17 13:31N 48°18' W 004°25'2 3.1
2018-Apr-17 13:00N 48°18' W 004°23'0 0.4
2018-Apr-17 12:30N 48°18' W 004°23'0 0.6
2018-Apr-17 12:00N 48°18' W 004°23'1 2.9
2018-Apr-17 11:31N 48°18' W 004°25'0 0.3
2018-Apr-17 11:00N 48°18' W 004°25'3 5.4
2018-Apr-17 10:30N 48°19' W 004°28'1 2.0
2018-Apr-17 10:00N 48°20' W 004°29'0 0.1
2018-Apr-17 09:30N 48°20' W 004°29'0 0.3
2018-Apr-17 09:01N 48°20' W 004°29'3 5.1
2018-Apr-17 08:31N 48°19' W 004°26'1 2.5
2018-Apr-17 08:00N 48°18' W 004°24'0 0.8
2018-Apr-17 07:30N 48°18' W 004°25'3 6.8
2018-Apr-17 07:00N 48°20' W 004°29'3 6.2
2018-Apr-17 06:30N 48°23' W 004°29'0 0.1
2018-Apr-17 06:01N 48°23' W 004°29'0 0.0
2018-Apr-17 05:30N 48°23' W 004°29'0 0.0
2018-Apr-17 05:00N 48°23' W 004°29'0 0.0
2018-Apr-17 04:30N 48°23' W 004°29'0 0.0
2018-Apr-17 04:00N 48°23' W 004°29'0 0.0
2018-Apr-17 03:30N 48°23' W 004°29'0 0.0
2018-Apr-17 03:00N 48°23' W 004°29'0 0.0
2018-Apr-17 02:30N 48°23' W 004°29'0 0.0
2018-Apr-17 02:00N 48°23' W 004°29'0 0.0
2018-Apr-17 01:30N 48°23' W 004°29'0 0.0
2018-Apr-17 01:00N 48°23' W 004°29'0 0.0
2018-Apr-17 00:30N 48°23' W 004°29'0 0.0
2018-Apr-17 00:00N 48°23' W 004°29'0 0.0
2018-Apr-16 23:30N 48°23' W 004°29'0 0.0
2018-Apr-16 23:00N 48°23' W 004°29'0 0.0
2018-Apr-16 22:30N 48°23' W 004°29'0 0.0
2018-Apr-16 22:00N 48°23' W 004°29'0 0.0
2018-Apr-16 21:30N 48°23' W 004°29'0 0.0
2018-Apr-16 21:00N 48°23' W 004°29'0 0.0
2018-Apr-16 20:30N 48°23' W 004°29'0 0.0
2018-Apr-16 20:00N 48°23' W 004°29'0 0.0
2018-Apr-16 19:30N 48°23' W 004°29'0 0.0
2018-Apr-16 19:00N 48°23' W 004°29'0 0.0
2018-Apr-16 18:30N 48°23' W 004°29'0 0.0
2018-Apr-16 18:00N 48°23' W 004°29'0 0.0
2018-Apr-16 17:30N 48°23' W 004°29'0 0.0
2018-Apr-16 17:00N 48°23' W 004°29'0 0.0
2018-Apr-16 16:30N 48°23' W 004°29'0 0.0
2018-Apr-16 16:00N 48°23' W 004°29'0 0.0
2018-Apr-16 15:30N 48°23' W 004°29'0 0.0
2018-Apr-16 15:00N 48°23' W 004°29'0 0.0
2018-Apr-16 14:30N 48°23' W 004°29'0 0.0
2018-Apr-16 14:00N 48°23' W 004°29'0 0.0
2018-Apr-16 13:30N 48°23' W 004°29'0 0.0
2018-Apr-16 13:00N 48°23' W 004°29'3 5.8
2018-Apr-16 12:30N 48°20' W 004°29'4 7.3
2018-Apr-16 12:01N 48°18' W 004°25'0 0.1
2018-Apr-16 11:30N 48°18' W 004°25'0 0.2
2018-Apr-16 11:01N 48°18' W 004°25'0 0.0
2018-Apr-16 10:31N 48°18' W 004°25'0 0.1
2018-Apr-16 10:00N 48°18' W 004°25'0 0.4
2018-Apr-16 09:30N 48°18' W 004°25'0 0.4
2018-Apr-16 09:00N 48°18' W 004°24'0 0.4
2018-Apr-16 08:30N 48°18' W 004°25'0 0.1
2018-Apr-16 08:00N 48°18' W 004°25'0 0.3
2018-Apr-16 07:31N 48°18' W 004°25'0 0.4
2018-Apr-16 07:01N 48°18' W 004°24'4 7.5
2018-Apr-16 06:30N 48°20' W 004°29'3 6.0
2018-Apr-16 06:00N 48°23' W 004°29'0 0.0
2018-Apr-16 05:30N 48°23' W 004°29'0 0.0
2018-Apr-16 05:00N 48°23' W 004°29'0 0.0
2018-Apr-16 04:30N 48°23' W 004°29'0 0.0
2018-Apr-16 04:00N 48°23' W 004°29'0 0.0
2018-Apr-16 03:30N 48°23' W 004°29'0 0.0
2018-Apr-16 03:00N 48°23' W 004°29'0 0.0
2018-Apr-16 02:30N 48°23' W 004°29'0 0.0
2018-Apr-16 02:00N 48°23' W 004°29'0 0.0
2018-Apr-16 01:30N 48°23' W 004°29'0 0.0
2018-Apr-16 01:00N 48°23' W 004°29'0 0.0
2018-Apr-16 00:30N 48°23' W 004°29'0 0.0
2018-Apr-16 00:00N 48°23' W 004°29'0 0.0
2018-Apr-15 23:30N 48°23' W 004°29'0 0.0
2018-Apr-15 23:00N 48°23' W 004°29'0 0.0
2018-Apr-15 22:30N 48°23' W 004°29'0 0.0
2018-Apr-15 22:00N 48°23' W 004°29'0 0.0
2018-Apr-15 21:30N 48°23' W 004°29'0 0.0
2018-Apr-15 21:00N 48°23' W 004°29'0 0.0
2018-Apr-15 20:30N 48°23' W 004°29'0 0.0
2018-Apr-15 20:00N 48°23' W 004°29'0 0.0
2018-Apr-15 19:30N 48°23' W 004°29'0 0.0
2018-Apr-15 19:00N 48°23' W 004°29'0 0.0
2018-Apr-15 18:30N 48°23' W 004°29'0 0.0
2018-Apr-15 18:00N 48°23' W 004°29'0 0.0
2018-Apr-15 17:30N 48°23' W 004°29'0 0.0
2018-Apr-15 17:00N 48°23' W 004°29'0 0.0
2018-Apr-15 16:30N 48°23' W 004°29'0 0.0
2018-Apr-15 16:00N 48°23' W 004°29'0 0.0
2018-Apr-15 15:30N 48°23' W 004°29'1 1.3
2018-Apr-15 15:00N 48°22' W 004°29'2 4.6
2018-Apr-15 14:31N 48°20' W 004°29'0 0.1
2018-Apr-15 14:01N 48°20' W 004°29'0 0.1
2018-Apr-15 13:31N 48°20' W 004°29'0 0.5
2018-Apr-15 13:01N 48°20' W 004°29'0 0.0
2018-Apr-15 12:30N 48°20' W 004°29'0 0.4
2018-Apr-15 12:01N 48°21' W 004°29'0 0.2
2018-Apr-15 11:31N 48°21' W 004°29'0 0.3
2018-Apr-15 11:01N 48°21' W 004°29'0 0.0
2018-Apr-15 10:31N 48°21' W 004°29'0 0.3
2018-Apr-15 10:01N 48°21' W 004°29'0 0.3
2018-Apr-15 09:31N 48°21' W 004°29'0 0.7
2018-Apr-15 09:00N 48°20' W 004°29'0 0.3
2018-Apr-15 08:31N 48°20' W 004°29'0 0.5
2018-Apr-15 08:01N 48°21' W 004°29'0 0.5
2018-Apr-15 07:31N 48°20' W 004°29'0 0.6
2018-Apr-15 07:00N 48°20' W 004°29'3 6.4
2018-Apr-15 06:31N 48°20' W 004°33'3 6.6
2018-Apr-15 06:01N 48°18' W 004°36'0 0.3
2018-Apr-15 05:28N 48°17' W 004°35'0 0.0
2018-Apr-15 04:58N 48°17' W 004°35'0 0.0
2018-Apr-15 04:28N 48°17' W 004°35'0 0.0
2018-Apr-15 03:58N 48°17' W 004°35'0 0.0
2018-Apr-15 03:28N 48°17' W 004°35'0 0.0
2018-Apr-15 02:58N 48°17' W 004°35'  

Dump ship's entire track history